createdAt,value
2018-04-24T00:03:37.943Z,77.90
2018-04-24T00:13:45.491Z,79.30
2018-04-24T00:18:50.095Z,79.30
2018-04-24T00:23:55.194Z,79.10
2018-04-24T00:28:59.055Z,79.60
2018-04-24T00:34:03.879Z,79.70
2018-04-24T00:49:16.793Z,80.50
2018-04-24T00:54:20.278Z,81.30
2018-04-24T00:59:24.432Z,80.90
2018-04-24T01:09:31.955Z,81.90
2018-04-24T01:14:35.083Z,81.70
2018-04-24T01:19:38.961Z,81.40
2018-04-24T01:29:47.632Z,82.70
2018-04-24T01:34:52.095Z,82.60
2018-04-24T01:39:55.971Z,83.80
2018-04-24T01:44:59.824Z,84.40
2018-04-24T01:50:04.079Z,85.10
2018-04-24T02:00:12.400Z,86.10
2018-04-24T02:20:29.799Z,87.20
2018-04-24T02:25:33.667Z,87.40
2018-04-24T02:30:36.828Z,88.30
2018-04-24T02:35:40.675Z,88.40
2018-04-24T02:40:43.783Z,88.90
2018-04-24T02:45:47.652Z,89.40
2018-04-24T02:50:51.147Z,89.70
2018-04-24T02:55:54.651Z,90.00
2018-04-24T03:06:03.164Z,90.20
2018-04-24T03:16:10.946Z,91.20
2018-04-24T03:21:14.047Z,91.30
2018-04-24T03:26:17.152Z,91.30
2018-04-24T03:31:20.634Z,91.80
2018-04-24T03:36:24.110Z,91.80
2018-04-24T03:41:28.767Z,91.60
2018-04-24T03:46:32.606Z,91.60
2018-04-24T03:56:41.713Z,91.50
2018-04-24T04:01:45.963Z,91.60
2018-04-24T04:11:54.400Z,91.30
2018-04-24T04:27:19.473Z,91.60
2018-04-24T04:32:24.462Z,91.60
2018-04-24T04:37:28.027Z,91.60
2018-04-24T04:47:36.307Z,91.50
2018-04-24T04:52:40.167Z,91.00
2018-04-24T04:57:43.794Z,91.10
2018-04-24T05:02:47.297Z,90.90
2018-04-24T05:07:51.141Z,91.00
2018-04-24T05:12:54.613Z,90.70
2018-04-24T05:18:00.122Z,90.40
2018-04-24T05:23:04.873Z,90.20
2018-04-24T05:38:18.146Z,86.80
2018-04-24T05:43:21.629Z,85.40
2018-04-24T05:48:25.625Z,85.90
2018-04-24T05:53:30.302Z,85.00
2018-04-24T06:03:38.381Z,83.00
2018-04-24T06:08:41.631Z,82.30
2018-04-24T06:13:45.086Z,81.10
2018-04-24T06:18:49.109Z,78.00
2018-04-24T06:23:52.573Z,78.50
2018-04-24T06:28:55.677Z,77.10
2018-04-24T06:33:58.764Z,76.50
2018-04-24T06:39:02.758Z,74.90
2018-04-24T06:44:06.986Z,72.90
2018-04-24T06:49:10.453Z,71.10
2018-04-24T06:54:14.075Z,69.60
2018-04-24T06:59:18.786Z,68.00
2018-04-24T07:04:22.780Z,67.90
2018-04-24T07:09:26.638Z,64.90
2018-04-24T07:14:29.863Z,63.30
2018-04-24T07:19:32.959Z,58.90
2018-04-24T07:24:36.134Z,56.20
2018-04-24T07:29:39.359Z,55.40
2018-04-24T07:34:43.202Z,54.50
2018-04-24T07:39:47.075Z,52.80
2018-04-24T07:49:54.598Z,52.30
2018-04-24T07:54:57.689Z,51.10
2018-04-24T08:00:01.907Z,52.90
2018-04-24T08:05:05.013Z,50.90
2018-04-24T08:10:08.106Z,51.20
2018-04-24T08:15:11.971Z,50.20
2018-04-24T08:20:15.047Z,51.00
2018-04-24T08:25:18.906Z,51.40
2018-04-24T08:30:23.130Z,50.30
2018-04-24T08:35:26.223Z,49.60
2018-04-24T08:40:30.074Z,51.50
2018-04-24T08:45:33.182Z,52.60
2018-04-24T08:50:37.063Z,52.30
2018-04-24T08:55:41.273Z,53.80
2018-04-24T09:00:44.373Z,53.90
2018-04-24T09:05:47.449Z,56.30
2018-04-24T09:10:52.053Z,56.10
2018-04-24T09:15:56.271Z,56.50
2018-04-24T09:20:59.776Z,57.30
2018-04-24T09:26:03.279Z,57.00
2018-04-24T09:31:06.354Z,57.40
2018-04-24T09:36:09.441Z,57.00
2018-04-24T09:41:13.300Z,57.70
2018-04-24T09:51:22.250Z,58.60
2018-04-24T09:56:26.057Z,60.10
2018-04-24T10:01:29.899Z,60.80
2018-04-24T10:06:33.390Z,60.10
2018-04-24T10:11:37.634Z,61.60
2018-04-24T10:42:02.934Z,58.20
2018-04-24T10:47:07.170Z,58.20
2018-04-24T11:02:19.921Z,59.20
2018-04-24T11:07:23.769Z,58.30
2018-04-24T11:17:31.293Z,58.20
2018-04-24T11:22:34.369Z,58.20
2018-04-24T11:27:38.969Z,60.00
2018-04-24T11:32:43.569Z,59.10
2018-04-24T11:37:47.058Z,59.60
2018-04-24T11:42:51.651Z,60.40
2018-04-24T11:52:59.921Z,58.60
2018-04-24T11:58:03.773Z,59.60
2018-04-24T12:03:06.875Z,58.60
2018-04-24T12:08:11.106Z,58.90
2018-04-24T12:28:27.902Z,60.20
2018-04-24T12:33:31.744Z,60.60
2018-04-24T12:38:34.830Z,61.70
2018-04-24T12:43:38.682Z,63.40
2018-04-24T12:48:42.521Z,60.80
2018-04-24T12:53:45.597Z,62.10
2018-04-24T12:58:48.678Z,62.90
2018-04-24T13:03:51.817Z,62.00
2018-04-24T13:08:55.978Z,61.90
2018-04-24T13:13:59.842Z,61.80
2018-04-24T13:24:08.865Z,62.60
2018-04-24T13:29:11.945Z,62.90
2018-04-24T13:34:15.022Z,63.60
2018-04-24T13:39:19.256Z,64.20
2018-04-24T13:44:23.104Z,63.00
2018-04-24T13:49:26.600Z,63.60
2018-04-24T13:59:34.882Z,64.70
2018-04-24T14:04:37.965Z,64.90
2018-04-24T14:09:42.200Z,66.20
2018-04-24T14:14:46.049Z,66.10
2018-04-24T14:24:54.322Z,67.30
2018-04-24T14:29:57.401Z,67.00
2018-04-24T14:45:09.785Z,69.20
2018-04-24T14:50:14.006Z,71.60
2018-04-24T14:55:17.474Z,69.70
2018-04-24T15:00:20.958Z,72.30
2018-04-24T15:10:28.454Z,73.50
2018-04-24T15:15:31.542Z,71.00
2018-04-24T15:20:34.694Z,73.50
2018-04-24T15:30:42.546Z,71.10
2018-04-24T15:35:46.785Z,69.80
2018-04-24T15:45:54.690Z,72.70
2018-04-24T15:50:58.181Z,70.80
2018-04-24T15:56:02.023Z,72.80
2018-04-24T16:06:09.548Z,70.80
2018-04-24T16:26:25.957Z,71.40
2018-04-24T16:31:29.050Z,70.80
2018-04-24T16:46:40.993Z,71.10
2018-04-24T16:56:49.269Z,71.20
2018-04-24T17:01:53.945Z,71.10
2018-04-24T17:06:57.018Z,71.50
2018-04-24T17:17:04.945Z,72.20
2018-04-24T17:22:08.042Z,72.80
2018-04-24T17:27:11.889Z,74.40
2018-04-24T17:32:15.386Z,74.00
2018-04-24T17:37:19.258Z,75.60
2018-04-24T17:42:22.322Z,74.30
2018-04-24T17:47:26.162Z,75.10
2018-04-24T17:52:29.250Z,74.70
2018-04-24T17:57:33.106Z,75.10
2018-04-24T18:02:37.332Z,75.90
2018-04-24T18:07:40.418Z,75.70
2018-04-24T18:17:48.327Z,74.20
2018-04-24T18:27:57.370Z,76.30
2018-04-24T18:33:01.231Z,76.50
2018-04-24T18:38:05.872Z,76.40
2018-04-24T18:43:10.113Z,76.80
2018-04-24T18:48:13.197Z,77.20
2018-04-24T18:53:17.111Z,77.60
2018-04-24T18:58:20.127Z,78.50
2018-04-24T19:03:24.366Z,78.60
2018-04-24T19:08:27.498Z,79.60
2018-04-24T19:13:31.343Z,79.30
2018-04-24T19:18:40.062Z,79.70
2018-04-24T19:28:47.578Z,80.40
2018-04-24T19:33:50.678Z,81.40
2018-04-24T19:39:00.112Z,81.90
2018-04-24T19:44:03.614Z,82.50
2018-04-24T19:49:13.398Z,83.40
2018-04-24T19:54:17.578Z,83.30
2018-04-24T19:59:21.834Z,83.00
2018-04-24T20:09:29.814Z,83.40
2018-04-24T20:19:37.730Z,84.20
2018-04-24T20:24:40.822Z,84.50
2018-04-24T20:29:43.902Z,85.40
2018-04-24T20:34:47.015Z,84.60
2018-04-24T20:44:55.271Z,85.10
2018-04-24T21:00:08.311Z,85.20
2018-04-24T21:05:12.467Z,86.00
2018-04-24T21:15:21.484Z,86.40
2018-04-24T21:20:25.698Z,86.70
2018-04-24T21:25:28.781Z,86.50
2018-04-24T21:30:32.655Z,87.30
2018-04-24T21:40:41.735Z,87.50
2018-04-24T21:50:50.042Z,89.80
2018-04-24T21:55:53.537Z,90.00
2018-04-24T22:00:57.385Z,90.20
2018-04-24T22:06:00.474Z,89.70
2018-04-24T22:11:03.966Z,88.20
2018-04-24T22:16:07.819Z,86.40
2018-04-24T22:21:10.992Z,84.80
2018-04-24T22:26:15.140Z,83.50
2018-04-24T22:36:23.435Z,82.00
2018-04-24T22:41:28.018Z,80.90
2018-04-24T22:46:31.104Z,80.10
2018-04-24T22:51:34.198Z,79.80
2018-04-24T22:56:38.041Z,79.10
2018-04-24T23:01:41.901Z,78.60
2018-04-24T23:06:45.745Z,78.80
2018-04-24T23:22:30.452Z,76.70
2018-04-24T23:27:34.229Z,76.20
2018-04-24T23:32:37.705Z,76.00
2018-04-24T23:37:40.787Z,75.60
2018-04-24T23:42:43.898Z,75.70
2018-04-24T23:47:47.760Z,75.70
2018-04-24T23:52:51.265Z,75.50
